AirNav   ATP
 
 1544 users online  

MS24 Joe Sanford Field Airport
Edwards, Mississippi, USA

GOING TO EDWARDS?


FAA INFORMATION EFFECTIVE 20 JULY 2017

Location

FAA Identifier: MS24
Lat/Long: 32-14-48.5360N / 090-34-56.3560W
32-14.808933N / 090-34.939267W
32.2468156 / -90.5823211
(estimated)
Elevation: 180 ft. / 55 m (estimated)
Variation: 03E (1985)
From city: 4 miles SE of EDWARDS, MS
Time zone: UTC -5 (UTC -6 during Standard Time)
Zip code: 39066

Airport Operations

Airport use: Private use. Permission required prior to landing
Activation date: 11/1990
Control tower: no
ARTCC: MEMPHIS CENTER
FSS: GREENWOOD FLIGHT SERVICE STATION
Attendance: UNATNDD
Wind indicator: yes
Segmented circle: no

Airport Communications

WX AWOS-3 at JVW (9 nm E): 118.675 ((601) 857-3887)
WX AWOS-3 at VKS (18 nm W): 118.85 (601-801-5376)
WX ASOS at HKS (19 nm E): 120.625 (601-354-4037)

Nearby radio navigation aids

VOR radial/distance  VOR name  Freq  Var
MHZr246/26.9MAGNOLIA VORTAC113.2001W

 
NDB name  Hdg/Dist  Freq  Var  ID
TALLULAH088/22.534402ETKH - -.- ....

Airport Services

Runway Information

Runway 2/20

Dimensions: 2300 x 50 ft. / 701 x 15 m
Surface: turf
RUNWAY 2  RUNWAY 20
Traffic pattern: leftleft
Obstructions: none50 ft. trees, marked, 50 ft. from runway

Airport Ownership and Management from official FAA records

Ownership: Privately-owned
Owner: JAMES GRANT
RR EDWARDS MOUNT MARIAH RD
EDWARDS, MS
Phone 601-942-4850
Manager: JOE LYNDALL SANFORD
105 GARAYWA COVE
CLINTON, MS 39056
Phone 601-924-6694

Instrument Procedures

There are no published instrument procedures at MS24.

Some nearby airports with instrument procedures:

KJVW - John Bell Williams Airport (9 nm E)
KVKS - Vicksburg Municipal Airport (18 nm W)
KHKS - Hawkins Field Airport (19 nm E)
KTVR - Vicksburg Tallulah Regional Airport (23 nm W)
KJAN - Jackson-Medgar Wiley Evers International Airport (26 nm E)
 
Loc | Ops | Rwys | IFR | FBO | Links
Com | Nav | Svcs | Stats | Notes


 
Area around MS24 (Joe Sanford Field Airport)
 
Road maps at: MapQuest Bing Google
 
Aerial photo
No photo
 
Sectional chart

 
Airport distance calculator
Flying to Joe Sanford Field Airport? Find the distance to fly.

From to MS24

Sunrise and sunset
Times for 20-Jul-2017
 Local
(UTC-5)
 Zulu
(UTC)
Morning civil twilight05:4310:43
Sunrise06:1011:10
Sunset20:0701:07
Evening civil twilight20:3401:34

Current date and time
Zulu (UTC)  20-Jul-2017 14:23:07
Local (UTC-5)  20-Jul-2017 09:23:07
 
METAR
KJVW 
9nm E 
201355Z AUTO 00000KT 9SM CLR 30/25 A3013 RMK AO2
KVKS 
18nm W 
201355Z AUTO 00000KT 10SM CLR 29/25 A3010 RMK A01
KHKS 
19nm E 
201353Z 00000KT 10SM CLR 30/24 A3014 RMK AO2 SLP197 T03000244
TAF
KHKS 
19nm E 
201126Z 2012/2112 00000KT P6SM SKC FM201300 VRB03KT P6SM SCT060
NOTAMs
Click for the latest NOTAMs
NOTAMs are issued by the DoD/FAA and will open in a separate window not controlled by AirNav.

 

 
 

Would you like to see your business listed on this page?

 If your business provides an interesting product or service to pilots, flight crews, aircraft, or users of the Joe Sanford Field Airport, you should consider listing it here.  To start the listing process, click on the button below
 
Add a business
 

Other Pages about Joe Sanford Field Airport

Update a link
 
Copyright © AirNav, LLC. All rights reserved. Privacy Policy  Contact